Time;durP1;ratioP1;P1;durP2;ratioP2;P2;SDS_P1;SDS_P2;PMS_P1;PMS_P2;Temp;Humidity;BMP_temperature;BMP_pressure;BME280_temperature;BME280_humidity;BME280_pressure;Samples;Min_cycle;Max_cycle;Signal;HPM_P1;HPM_P2
2022/10/13 00:01:25;;;;;;;19.77;13.10;;;;;;;14.35;72.65;99266.66;5092669;28;20024;-46
2022/10/13 00:03:51;;;;;;;28.98;19.73;;;;;;;14.30;71.92;99263.03;5092435;28;20512;-46
2022/10/13 00:06:19;;;;;;;29.65;20.20;;;;;;;14.19;72.11;99267.13;5092285;28;20031;-46
2022/10/13 00:08:46;;;;;;;32.78;25.58;;;;;;;14.14;72.08;99267.75;5092210;28;20031;-46
2022/10/13 00:11:30;;;;;;;19.77;15.75;;;;;;;14.21;72.46;99266.94;5092239;28;20028;-46
2022/10/13 00:14:02;;;;;;;25.58;18.63;;;;;;;14.32;72.42;99260.97;5091238;28;20071;-46
2022/10/13 00:16:29;;;;;;;16.00;10.95;;;;;;;14.44;72.14;99266.41;5090856;28;20016;-46
2022/10/13 00:18:55;;;;;;;20.50;12.02;;;;;;;14.22;71.72;99268.53;5091957;28;20044;-45
2022/10/13 00:21:24;;;;;;;20.48;11.38;;;;;;;13.79;72.61;99267.25;5090760;28;20031;-45
2022/10/13 00:23:50;;;;;;;24.25;11.25;;;;;;;13.56;73.51;99265.06;5092093;28;20032;-46
2022/10/13 00:26:17;;;;;;;15.65;10.80;;;;;;;13.66;74.45;99267.28;5089930;28;20024;-46
2022/10/13 00:28:43;;;;;;;19.63;10.23;;;;;;;13.81;74.60;99267.88;5090648;28;20122;-46
2022/10/13 00:31:38;;;;;;;14.20;10.27;;;;;;;13.94;73.99;99265.19;5090633;28;20162;-46
2022/10/13 00:34:04;;;;;;;17.52;11.55;;;;;;;14.00;73.64;99271.44;5056921;28;20401;-45
2022/10/13 00:36:30;;;;;;;17.85;9.90;;;;;;;14.06;73.77;99278.53;5091916;28;20397;-46
2022/10/13 00:38:56;;;;;;;15.05;11.75;;;;;;;14.04;73.02;99279.78;5090556;28;20043;-45
2022/10/13 00:41:22;;;;;;;31.17;15.50;;;;;;;14.28;74.07;99292.25;5092072;28;20024;-46
2022/10/13 00:43:51;;;;;;;27.20;13.63;;;;;;;14.81;72.92;99295.69;5073762;28;20478;-46
2022/10/13 00:46:16;;;;;;;18.80;11.90;;;;;;;15.01;71.36;99306.13;5090493;28;20111;-46
2022/10/13 00:48:43;;;;;;;16.65;10.18;;;;;;;14.92;70.33;99305.59;5090342;28;20115;-46
2022/10/13 00:51:13;;;;;;;15.00;9.52;;;;;;;14.69;70.48;99303.47;5091775;28;20097;-46
2022/10/13 00:53:40;;;;;;;30.48;8.68;;;;;;;14.80;71.05;99297.53;5091738;28;20446;-46
2022/10/13 00:56:09;;;;;;;13.25;7.32;;;;;;;14.93;69.81;99300.09;5091716;28;20036;-46
2022/10/13 00:58:38;;;;;;;17.17;7.38;;;;;;;14.84;69.77;99298.72;5090382;28;20032;-46
2022/10/13 01:01:05;;;;;;;19.02;8.68;;;;;;;14.77;69.37;99297.97;5090365;28;20032;-45
2022/10/13 01:03:30;;;;;;;24.33;10.32;;;;;;;14.61;69.23;99296.63;5090384;28;20421;-45
2022/10/13 01:06:00;;;;;;;24.38;8.15;;;;;;;14.43;69.31;99296.47;5090347;28;20126;-46
2022/10/13 01:08:28;;;;;;;19.23;10.23;;;;;;;14.31;69.97;99299.78;5091521;28;20022;-46
2022/10/13 01:11:12;;;;;;;16.20;9.93;;;;;;;14.24;69.74;99293.72;5090240;28;20021;-46
2022/10/13 01:14:00;;;;;;;16.92;10.05;;;;;;;14.10;70.35;99292.94;5091694;28;20031;-46
2022/10/13 01:16:28;;;;;;;15.35;10.02;;;;;;;14.11;70.44;99297.22;5090278;28;20404;-46
2022/10/13 01:19:13;;;;;;;14.77;10.13;;;;;;;14.12;70.38;99298.00;5091313;28;20044;-46
2022/10/13 01:21:46;;;;;;;14.73;10.82;;;;;;;14.21;70.95;99288.06;5091582;28;20043;-46
2022/10/13 01:24:27;;;;;;;22.90;10.35;;;;;;;14.45;70.77;99289.19;5090281;28;20028;-46
2022/10/13 01:27:16;;;;;;;23.08;10.98;;;;;;;14.45;69.38;99282.06;5090199;28;20032;-46
2022/10/13 01:30:00;;;;;;;16.60;11.35;;;;;;;14.28;69.35;99278.25;5090017;28;20498;-46
2022/10/13 01:32:34;;;;;;;19.30;12.90;;;;;;;14.04;69.76;99283.22;5090171;28;20054;-45
2022/10/13 01:35:37;;;;;;;20.50;13.23;;;;;;;13.80;70.73;99284.69;5090134;28;20032;-46
2022/10/13 01:38:24;;;;;;;20.15;13.10;;;;;;;13.75;71.80;99271.34;5094803;28;20035;-46
2022/10/13 01:41:21;;;;;;;21.95;13.50;;;;;;;13.86;71.51;99275.94;5095145;28;20482;-46
2022/10/13 01:44:14;;;;;;;23.95;15.05;;;;;;;13.90;71.24;99277.16;5093718;28;20028;-46
2022/10/13 01:46:42;;;;;;;22.48;12.93;;;;;;;13.91;71.46;99278.78;5095132;28;20028;-46
2022/10/13 01:49:15;;;;;;;16.13;11.52;;;;;;;14.26;71.06;99280.31;5093586;28;20024;-46
2022/10/13 01:51:43;;;;;;;27.00;10.65;;;;;;;14.39;70.35;99282.91;5095183;28;20024;-46
2022/10/13 01:54:09;;;;;;;18.50;11.23;;;;;;;14.34;69.65;99280.06;5093546;28;20028;-46
2022/10/13 01:56:34;;;;;;;18.85;10.32;;;;;;;14.13;69.86;99273.25;5094755;28;20030;-46
2022/10/13 01:59:07;;;;;;;20.73;9.68;;;;;;;13.99;70.47;99272.50;5093452;28;20498;-46
2022/10/13 02:01:38;;;;;;;19.83;10.40;;;;;;;13.84;70.21;99254.25;5093402;28;20032;-46
2022/10/13 02:04:36;;;;;;;14.77;10.20;;;;;;;13.65;70.97;99257.75;5093306;28;20035;-46
2022/10/13 02:07:10;;;;;;;16.23;11.50;;;;;;;13.38;71.56;99250.69;5070430;28;20090;-46
2022/10/13 02:09:54;;;;;;;18.15;12.32;;;;;;;13.06;72.55;99254.09;5093196;28;20055;-46
2022/10/13 02:12:37;;;;;;;19.73;13.82;;;;;;;12.88;73.58;99255.53;5094487;28;20081;-46
2022/10/13 02:15:04;;;;;;;17.73;12.23;;;;;;;12.88;73.47;99254.72;5094495;28;20032;-46
2022/10/13 02:17:31;;;;;;;23.70;12.43;;;;;;;12.92;73.62;99248.84;5094430;28;20021;-46
2022/10/13 02:19:57;;;;;;;19.15;12.00;;;;;;;12.88;73.55;99247.63;5094346;28;20025;-46
2022/10/13 02:22:30;;;;;;;22.17;13.00;;;;;;;12.92;73.56;99248.84;5094263;28;20062;-46
2022/10/13 02:24:55;;;;;;;15.07;11.63;;;;;;;12.66;74.00;99254.09;5094329;28;20024;-45
2022/10/13 02:27:22;;;;;;;23.67;12.35;;;;;;;12.47;74.73;99253.00;5094128;28;20035;-46
2022/10/13 02:29:52;;;;;;;21.80;13.35;;;;;;;12.38;75.74;99255.00;5094141;28;20024;-46
2022/10/13 02:32:18;;;;;;;19.63;13.13;;;;;;;12.50;76.53;99250.78;5092797;28;20379;-45
2022/10/13 02:34:44;;;;;;;20.55;14.93;;;;;;;12.51;76.06;99244.50;5094100;28;20035;-46
2022/10/13 02:37:10;;;;;;;22.05;14.32;;;;;;;12.34;76.42;99241.44;5092656;28;20030;-46
2022/10/13 02:39:35;;;;;;;26.60;14.60;;;;;;;12.26;77.07;99243.44;5092717;28;20046;-46
2022/10/13 02:42:01;;;;;;;25.48;16.52;;;;;;;12.13;77.74;99247.66;5093897;28;20057;-46
2022/10/13 02:44:27;;;;;;;23.70;15.48;;;;;;;12.05;78.00;99242.53;5093851;28;20027;-46
2022/10/13 02:46:52;;;;;;;22.00;15.77;;;;;;;12.00;78.82;99239.69;5092521;28;20107;-46
2022/10/13 02:49:18;;;;;;;29.13;15.52;;;;;;;11.95;79.02;99237.66;5091534;28;20020;-46
2022/10/13 02:51:44;;;;;;;22.52;14.07;;;;;;;11.94;79.38;99240.47;5092419;28;20040;-45
2022/10/13 02:54:09;;;;;;;19.00;14.07;;;;;;;11.91;78.96;99241.69;5092398;28;20028;-46
2022/10/13 02:56:35;;;;;;;19.02;14.35;;;;;;;11.96;79.53;99238.47;5093599;28;20064;-46
2022/10/13 02:59:01;;;;;;;20.55;14.02;;;;;;;12.04;79.77;99227.75;5092628;28;20036;-46
2022/10/13 03:01:26;;;;;;;19.73;13.90;;;;;;;12.35;79.95;99229.06;5092284;28;20066;-46
2022/10/13 03:03:52;;;;;;;24.42;13.90;;;;;;;12.31;78.51;99214.69;5093503;28;20389;-45
2022/10/13 03:06:18;;;;;;;18.15;13.02;;;;;;;12.31;78.60;99225.22;5092205;28;20084;-46
2022/10/13 03:08:43;;;;;;;19.00;12.32;;;;;;;12.43;78.25;99221.00;5092016;28;20031;-46
2022/10/13 03:11:09;;;;;;;21.80;12.60;;;;;;;12.52;78.21;99224.28;5093351;28;20467;-46
2022/10/13 03:13:36;;;;;;;22.80;13.48;;;;;;;12.50;77.62;99227.09;5093367;28;20401;-46
2022/10/13 03:16:02;;;;;;;22.05;14.73;;;;;;;12.36;77.13;99230.72;5093280;28;20034;-46
2022/10/13 03:18:28;;;;;;;18.70;12.63;;;;;;;12.16;77.76;99226.19;5092944;28;20044;-46
2022/10/13 03:21:03;;;;;;;25.15;13.77;;;;;;;12.12;78.48;99219.69;5091896;28;20027;-46
2022/10/13 03:23:29;;;;;;;20.77;13.68;;;;;;;12.24;78.37;99219.13;5091874;28;20016;-46
2022/10/13 03:25:55;;;;;;;22.15;15.07;;;;;;;12.17;78.45;99219.94;5093051;28;20396;-46
2022/10/13 03:28:21;;;;;;;26.25;15.65;;;;;;;12.15;78.74;99223.75;5092922;28;20024;-46
2022/10/13 03:30:47;;;;;;;20.45;14.40;;;;;;;12.12;79.04;99222.34;5091661;28;20069;-45
2022/10/13 03:33:13;;;;;;;26.73;15.95;;;;;;;12.04;79.02;99229.59;5091619;28;20043;-46
2022/10/13 03:35:39;;;;;;;27.42;16.80;;;;;;;11.94;79.04;99222.06;5091634;28;20107;-46
2022/10/13 03:38:05;;;;;;;26.30;17.42;;;;;;;11.82;79.69;99228.84;5091530;28;20490;-46
2022/10/13 03:40:30;;;;;;;22.58;14.57;;;;;;;11.77;80.26;99225.00;5091515;28;20040;-46
2022/10/13 03:42:56;;;;;;;31.75;16.65;;;;;;;11.96;79.90;99230.56;5091456;28;20494;-45
2022/10/13 03:45:22;;;;;;;27.13;14.35;;;;;;;12.03;79.59;99231.38;5092666;28;20031;-46
2022/10/13 03:47:47;;;;;;;26.55;13.75;;;;;;;12.16;79.54;99233.28;5092691;28;20042;-46
2022/10/13 03:50:13;;;;;;;27.63;12.32;;;;;;;12.57;80.04;99233.19;5091164;28;20038;-46
2022/10/13 03:52:39;;;;;;;23.65;13.10;;;;;;;12.99;78.58;99233.84;5092627;28;20020;-46
2022/10/13 03:55:05;;;;;;;22.15;14.10;;;;;;;13.07;77.03;99229.38;5092502;28;20028;-45
2022/10/13 03:57:31;;;;;;;23.58;14.02;;;;;;;12.99;76.88;99228.56;5092523;28;20077;-46
2022/10/13 03:59:57;;;;;;;27.23;16.45;;;;;;;12.91;76.30;99233.22;5091101;28;20081;-46
2022/10/13 04:02:22;;;;;;;21.55;14.60;;;;;;;12.68;76.76;99223.09;5092453;28;20131;-45
2022/10/13 04:04:49;;;;;;;19.42;14.50;;;;;;;12.65;77.15;99224.28;5092694;28;20052;-46
2022/10/13 04:07:15;;;;;;;25.42;14.43;;;;;;;12.73;77.21;99223.28;5091033;28;20032;-45
2022/10/13 04:09:40;;;;;;;19.38;13.27;;;;;;;12.93;76.93;99223.31;5092295;28;20533;-45
2022/10/13 04:12:06;;;;;;;24.10;14.98;;;;;;;13.06;76.36;99210.13;5092220;28;20020;-45
2022/10/13 04:14:32;;;;;;;27.83;16.10;;;;;;;12.94;76.38;99219.66;5090929;28;20085;-46
2022/10/13 04:16:58;;;;;;;25.08;17.63;;;;;;;12.79;76.91;99204.03;5090862;28;20032;-46
2022/10/13 04:19:24;;;;;;;49.22;18.58;;;;;;;12.67;77.47;99208.28;5090642;28;20051;-45
2022/10/13 04:21:50;;;;;;;28.20;18.80;;;;;;;12.62;77.88;99205.47;5090753;28;20024;-46
2022/10/13 04:24:16;;;;;;;38.28;18.65;;;;;;;12.52;78.00;99208.47;5090761;28;20401;-46
2022/10/13 04:26:42;;;;;;;62.55;21.48;;;;;;;12.37;78.86;99206.00;5092030;28;20089;-45
2022/10/13 04:29:10;;;;;;;182.23;23.80;;;;;;;12.54;80.40;99202.00;5091954;28;20432;-46
2022/10/13 04:31:36;;;;;;;43.13;21.42;;;;;;;12.75;79.03;99206.25;5090733;28;20067;-45
2022/10/13 04:34:02;;;;;;;45.63;21.58;;;;;;;12.53;79.23;99194.28;5090683;28;20024;-46
2022/10/13 04:36:28;;;;;;;58.72;23.50;;;;;;;12.29;79.68;99191.19;5091903;28;20027;-45
2022/10/13 04:38:54;;;;;;;39.40;20.80;;;;;;;12.16;80.97;99194.63;5091869;28;20036;-46
2022/10/13 04:41:21;;;;;;;63.72;22.83;;;;;;;12.10;81.67;99198.03;5091937;28;20016;-45
2022/10/13 04:43:48;;;;;;;34.72;22.30;;;;;;;12.07;82.25;99195.78;5091892;28;20025;-45
2022/10/13 04:46:17;;;;;;;30.60;19.55;;;;;;;12.12;82.98;99198.66;5091848;28;20076;-46
2022/10/13 04:48:43;;;;;;;28.10;17.38;;;;;;;12.44;83.39;99209.47;5090432;28;20114;-46
2022/10/13 04:51:12;;;;;;;26.17;17.20;;;;;;;12.98;82.71;99210.34;5091761;28;20019;-46
2022/10/13 04:53:39;;;;;;;32.75;15.95;;;;;;;13.42;81.66;99197.53;5090497;28;20031;-45
2022/10/13 04:56:16;;;;;;;41.10;15.52;;;;;;;13.77;80.21;99190.16;5091723;28;20020;-46
2022/10/13 04:58:44;;;;;;;27.67;15.27;;;;;;;14.34;79.12;99204.28;5092064;28;20048;-46
2022/10/13 05:01:19;;;;;;;28.42;13.20;;;;;;;14.66;77.10;99203.53;5090485;28;20028;-46
2022/10/13 05:03:45;;;;;;;19.42;13.75;;;;;;;14.77;75.17;99198.38;5091846;28;20024;-46
2022/10/13 05:06:16;;;;;;;28.35;17.17;;;;;;;14.32;73.83;99205.53;5090459;28;20020;-46
2022/10/13 05:08:42;;;;;;;27.88;15.95;;;;;;;13.82;75.66;99208.00;5091590;28;20493;-45
2022/10/13 05:11:08;;;;;;;24.75;14.43;;;;;;;13.85;76.92;99218.13;5092040;28;20035;-46
2022/10/13 05:13:34;;;;;;;26.88;16.40;;;;;;;14.19;76.78;99224.91;5095672;28;20020;-46
2022/10/13 05:16:08;;;;;;;28.50;14.35;;;;;;;14.52;76.18;99232.63;5095649;28;20020;-46
2022/10/13 05:18:34;;;;;;;35.33;14.25;;;;;;;14.91;74.49;99228.16;5095393;28;20518;-46
2022/10/13 05:21:18;;;;;;;29.20;13.43;;;;;;;15.01;72.68;99230.31;5094143;28;20031;-46
2022/10/13 05:23:44;;;;;;;23.73;15.30;;;;;;;14.90;72.33;99239.72;5094169;28;20019;-46
2022/10/13 05:26:17;;;;;;;22.23;14.23;;;;;;;14.81;72.43;99233.09;5095409;28;20070;-46
2022/10/13 05:28:43;;;;;;;36.47;14.68;;;;;;;14.81;72.50;99233.09;5095259;28;20567;-46
2022/10/13 05:31:18;;;;;;;34.35;13.88;;;;;;;14.83;71.96;99230.22;5095260;28;20028;-46
2022/10/13 05:33:46;;;;;;;23.20;13.68;;;;;;;14.81;71.45;99224.34;5095340;28;20032;-46
2022/10/13 05:36:17;;;;;;;21.63;14.13;;;;;;;14.68;70.63;99228.69;5095274;28;20051;-46
2022/10/13 05:38:44;;;;;;;21.38;13.27;;;;;;;14.49;70.65;99222.50;5093902;28;20028;-46
2022/10/13 05:41:13;;;;;;;28.15;13.85;;;;;;;14.32;70.59;99210.81;5095084;28;20490;-46
2022/10/13 05:43:40;;;;;;;28.70;14.27;;;;;;;14.16;70.73;99197.06;5095121;28;20447;-46
2022/10/13 05:46:06;;;;;;;23.75;16.42;;;;;;;14.01;71.02;99193.91;5093662;28;20028;-46
2022/10/13 05:48:33;;;;;;;23.05;13.55;;;;;;;13.87;70.96;99192.34;5095002;28;20028;-46
2022/10/13 05:51:01;;;;;;;21.65;12.75;;;;;;;13.66;71.64;99188.97;5093630;28;20031;-46
2022/10/13 05:53:34;;;;;;;24.52;18.83;;;;;;;13.77;72.84;99188.31;5093581;28;20024;-46
2022/10/13 05:56:06;;;;;;;26.08;15.23;;;;;;;13.88;72.82;99189.47;5094926;28;20024;-46
2022/10/13 05:58:39;;;;;;;24.00;15.60;;;;;;;13.81;73.02;99190.56;5094866;28;20024;-46
2022/10/13 06:01:10;;;;;;;26.20;17.92;;;;;;;13.64;74.39;99183.06;5093451;28;20028;-45
2022/10/13 06:03:38;;;;;;;28.52;18.60;;;;;;;13.36;75.83;99186.81;5094751;28;20028;-46
2022/10/13 06:06:04;;;;;;;27.80;18.55;;;;;;;13.16;76.86;99180.75;5094570;28;20494;-46
2022/10/13 06:08:30;;;;;;;28.75;17.90;;;;;;;13.08;78.07;99181.75;5094491;28;20035;-46
2022/10/13 06:10:56;;;;;;;27.05;17.35;;;;;;;13.14;78.19;99193.31;5094513;28;20414;-46
2022/10/13 06:13:22;;;;;;;22.95;16.60;;;;;;;13.28;78.84;99192.28;5094516;28;20027;-46
2022/10/13 06:15:47;;;;;;;34.88;16.90;;;;;;;13.45;78.29;99194.50;5093031;28;20059;-48
2022/10/13 06:18:13;;;;;;;25.20;15.98;;;;;;;13.72;78.44;99198.69;5092918;28;20044;-45
2022/10/13 06:20:39;;;;;;;33.63;17.70;;;;;;;13.95;77.29;99198.19;5094426;28;20423;-46
2022/10/13 06:23:04;;;;;;;26.17;18.88;;;;;;;13.81;77.17;99195.84;5093050;28;20085;-46
2022/10/13 06:25:30;;;;;;;26.45;18.17;;;;;;;13.56;77.29;99197.31;5094251;28;20064;-46
2022/10/13 06:27:58;;;;;;;27.15;19.23;;;;;;;13.49;78.07;99187.81;5092871;28;20028;-46
2022/10/13 06:30:25;;;;;;;45.63;20.75;;;;;;;13.38;78.89;99197.97;5094101;28;20073;-46
2022/10/13 06:32:53;;;;;;;28.08;17.80;;;;;;;13.36;79.55;99200.00;5094158;28;20120;-46
2022/10/13 06:35:18;;;;;;;18.80;16.02;;;;;;;13.70;79.72;99210.47;5094352;28;20055;-46
2022/10/13 06:37:46;;;;;;;22.58;15.95;;;;;;;14.15;78.43;99202.59;5092762;28;20067;-46
2022/10/13 06:40:12;;;;;;;27.90;15.13;;;;;;;14.56;77.17;99219.84;5094173;28;20024;-46
2022/10/13 06:42:37;;;;;;;22.90;16.02;;;;;;;15.12;76.46;99212.94;5093945;28;20101;-46
2022/10/13 06:45:03;;;;;;;18.70;14.15;;;;;;;15.62;74.35;99218.16;5094121;28;20031;-46
2022/10/13 06:47:29;;;;;;;34.10;14.82;;;;;;;15.93;73.10;99213.75;5093847;28;20506;-46
2022/10/13 06:49:55;;;;;;;27.88;15.05;;;;;;;16.50;71.27;99222.19;5092427;28;20023;-46
2022/10/13 06:52:20;;;;;;;28.23;18.38;;;;;;;16.79;69.80;99222.38;5093778;28;20073;-46
2022/10/13 06:54:46;;;;;;;28.33;15.10;;;;;;;16.82;68.64;99214.00;5092420;28;20389;-46
2022/10/13 06:57:12;;;;;;;27.45;13.38;;;;;;;16.84;68.14;99219.88;5092340;28;20119;-46
2022/10/13 06:59:37;;;;;;;27.13;15.07;;;;;;;16.80;67.10;99217.88;5093904;28;20099;-46
2022/10/13 07:02:03;;;;;;;36.83;30.92;;;;;;;16.42;66.11;99211.91;5092368;28;20061;-46
2022/10/13 07:04:29;;;;;;;125.30;113.68;;;;;;;16.04;67.01;99209.56;5093561;28;20495;-46
2022/10/13 07:06:54;;;;;;;42.53;24.08;;;;;;;15.81;67.75;99218.19;5092125;28;20028;-46
2022/10/13 07:09:20;;;;;;;36.63;16.95;;;;;;;15.71;68.54;99234.53;5091986;28;20111;-46
2022/10/13 07:11:46;;;;;;;36.63;22.20;;;;;;;15.76;69.02;99224.13;5093398;28;20112;-46
2022/10/13 07:14:13;;;;;;;29.85;16.55;;;;;;;15.95;69.56;99223.09;5092297;28;20111;-46
2022/10/13 07:16:39;;;;;;;26.77;13.93;;;;;;;16.18;68.63;99222.41;5093506;28;20463;-46
2022/10/13 07:19:05;;;;;;;27.05;13.48;;;;;;;16.27;68.17;99230.84;5093041;28;20044;-46
2022/10/13 07:21:31;;;;;;;27.50;12.18;;;;;;;16.25;68.06;99229.47;5093196;28;20085;-46
2022/10/13 07:23:56;;;;;;;16.55;11.32;;;;;;;16.16;68.12;99229.78;5093155;28;20370;-46
2022/10/13 07:26:22;;;;;;;21.13;12.48;;;;;;;16.12;68.50;99227.78;5093043;28;20074;-46
2022/10/13 07:28:49;;;;;;;23.08;12.50;;;;;;;16.46;68.88;99221.03;5092969;28;20042;-46
2022/10/13 07:31:19;;;;;;;27.30;15.32;;;;;;;16.81;67.40;99220.34;5093256;28;20385;-46
2022/10/13 07:33:47;;;;;;;28.10;12.88;;;;;;;16.88;66.81;99220.22;5092818;28;20398;-46
2022/10/13 07:36:13;;;;;;;36.88;14.68;;;;;;;16.84;66.14;99219.88;5092863;28;20034;-46
2022/10/13 07:38:39;;;;;;;31.90;13.55;;;;;;;16.77;65.93;99219.94;5091586;28;20028;-46
2022/10/13 07:41:07;;;;;;;28.58;15.73;;;;;;;16.75;66.28;99219.38;5091517;28;20031;-46
2022/10/13 07:43:33;;;;;;;23.50;14.05;;;;;;;16.88;66.42;99220.22;5091563;28;20523;-46
2022/10/13 07:46:00;;;;;;;17.35;12.15;;;;;;;16.94;65.24;99217.47;5091510;28;20118;-46
2022/10/13 07:48:27;;;;;;;31.73;19.40;;;;;;;16.95;65.51;99205.81;5091388;28;20062;-46
2022/10/13 07:50:52;;;;;;;31.02;18.17;;;;;;;17.17;65.35;99210.56;5092663;28;20110;-46
2022/10/13 07:53:18;;;;;;;43.10;23.80;;;;;;;17.28;64.79;99206.31;5092629;28;20095;-46
2022/10/13 07:55:44;;;;;;;27.08;18.67;;;;;;;17.30;64.36;99205.03;5091282;28;20043;-46
2022/10/13 07:58:09;;;;;;;33.00;19.52;;;;;;;17.34;64.32;99211.50;5091256;28;20038;-46
2022/10/13 08:00:35;;;;;;;38.05;17.73;;;;;;;17.39;64.44;99218.75;5092512;28;20021;-46
2022/10/13 08:03:01;;;;;;;34.63;16.55;;;;;;;17.58;64.54;99217.56;5092547;28;20035;-46
2022/10/13 08:05:27;;;;;;;27.77;15.82;;;;;;;17.94;63.62;99218.34;5092656;28;20013;-44
2022/10/13 08:07:53;;;;;;;52.72;19.45;;;;;;;18.30;62.75;99210.28;5092344;28;20439;-44
2022/10/13 08:10:20;;;;;;;41.53;15.55;;;;;;;18.50;61.95;99215.94;5092171;28;20082;-44
2022/10/13 08:12:46;;;;;;;63.33;25.73;;;;;;;18.69;61.39;99211.22;5092254;28;20115;-44
2022/10/13 08:15:12;;;;;;;77.35;27.65;;;;;;;18.91;61.36;99211.34;5092217;28;20016;-45
2022/10/13 08:17:38;;;;;;;46.95;18.80;;;;;;;19.32;60.26;99208.50;5092000;28;20031;-45
2022/10/13 08:20:05;;;;;;;32.67;18.48;;;;;;;19.87;59.08;99206.84;5090950;28;20028;-44
2022/10/13 08:22:33;;;;;;;41.63;16.45;;;;;;;20.81;57.34;99205.69;5092105;28;20066;-45
2022/10/13 08:25:02;;;;;;;37.13;15.63;;;;;;;21.65;54.54;99201.44;5092115;28;20016;-45
2022/10/13 08:27:28;;;;;;;30.58;16.80;;;;;;;21.91;52.79;99197.00;5090873;28;20494;-45
2022/10/13 08:29:54;;;;;;;51.55;20.25;;;;;;;21.90;52.76;99210.63;5090635;28;20024;-44
2022/10/13 08:32:21;;;;;;;49.58;20.10;;;;;;;22.05;52.82;99213.31;5090697;28;20571;-45
2022/10/13 08:34:48;;;;;;;24.58;13.48;;;;;;;22.66;51.55;99214.56;5091991;28;20084;-44
2022/10/13 08:37:17;;;;;;;21.92;13.95;;;;;;;23.31;50.21;99220.94;5090563;28;20020;-45
2022/10/13 08:39:44;;;;;;;35.10;14.90;;;;;;;23.72;48.80;99212.81;5091906;28;20088;-45
2022/10/13 08:42:28;;;;;;;37.53;15.15;;;;;;;23.57;49.44;99204.03;5091928;28;20020;-45
2022/10/13 08:45:04;;;;;;;41.85;13.20;;;;;;;23.88;48.15;99202.81;5091942;28;20111;-45
2022/10/13 08:47:47;;;;;;;29.13;13.23;;;;;;;24.08;47.75;99201.94;5091473;28;20435;-45
2022/10/13 08:50:17;;;;;;;45.50;13.23;;;;;;;23.87;47.56;99205.81;5090475;28;20089;-45
2022/10/13 08:52:59;;;;;;;33.58;13.50;;;;;;;23.47;47.91;99202.16;5091845;28;20082;-45
2022/10/13 08:55:30;;;;;;;28.60;12.88;;;;;;;23.00;48.73;99203.28;5091830;28;20028;-45
2022/10/13 08:57:57;;;;;;;25.63;13.45;;;;;;;22.64;49.45;99201.44;5091739;28;20032;-44
2022/10/13 09:00:23;;;;;;;32.10;12.48;;;;;;;22.42;50.27;99200.88;5091783;28;20036;-45
2022/10/13 09:02:49;;;;;;;22.25;12.40;;;;;;;22.16;51.09;99208.81;5091705;28;20039;-45
2022/10/13 09:05:33;;;;;;;26.88;13.27;;;;;;;21.85;51.55;99206.06;5091691;28;20019;-45
2022/10/13 09:08:00;;;;;;;26.27;13.95;;;;;;;21.68;51.98;99208.13;5091759;28;20032;-45
2022/10/13 09:10:25;;;;;;;24.05;14.55;;;;;;;21.56;52.43;99196.84;5091814;28;20020;-45
2022/10/13 09:12:51;;;;;;;22.48;13.52;;;;;;;21.47;52.65;99191.16;5091676;28;20033;-45
2022/10/13 09:15:18;;;;;;;23.30;12.85;;;;;;;21.45;53.04;99193.31;5091572;28;20019;-45
2022/10/13 09:17:44;;;;;;;27.70;12.43;;;;;;;21.43;53.03;99190.91;5090283;28;20532;-44
2022/10/13 09:20:23;;;;;;;34.00;14.15;;;;;;;21.51;53.26;99200.28;5091596;28;20016;-45
2022/10/13 09:23:13;;;;;;;40.13;14.93;;;;;;;21.63;53.10;99190.22;5090379;28;20034;-45
2022/10/13 09:25:48;;;;;;;22.83;11.57;;;;;;;21.69;53.17;99199.03;5090222;28;20024;-44
2022/10/13 09:28:27;;;;;;;19.38;12.32;;;;;;;21.82;52.84;99193.22;5091501;28;20197;-45
2022/10/13 09:31:26;;;;;;;17.35;11.15;;;;;;;21.71;53.07;99186.22;5091522;28;20028;-44
2022/10/13 09:34:19;;;;;;;18.10;11.65;;;;;;;21.47;53.81;99189.31;5087793;28;20378;-44
2022/10/13 09:37:03;;;;;;;24.23;11.88;;;;;;;21.53;53.99;99188.28;5079362;28;20039;-45
2022/10/13 09:39:30;;;;;;;26.60;23.15;;;;;;;21.59;53.86;99188.28;5091438;28;20107;-44
2022/10/13 09:42:24;;;;;;;21.80;13.98;;;;;;;21.84;53.70;99184.94;5090063;28;20378;-44
2022/10/13 09:45:11;;;;;;;26.00;17.38;;;;;;;21.90;53.65;99175.88;5091416;28;20063;-44
2022/10/13 09:47:37;;;;;;;28.98;17.77;;;;;;;22.23;53.01;99179.94;5089998;28;20030;-44
2022/10/13 09:50:27;;;;;;;27.33;13.90;;;;;;;22.33;52.37;99163.16;5091051;28;20032;-45
2022/10/13 09:53:15;;;;;;;44.33;22.02;;;;;;;22.36;52.25;99161.84;5083532;28;20036;-45
2022/10/13 09:55:40;;;;;;;16.42;10.98;;;;;;;22.46;51.86;99164.53;5091484;28;20036;-45
2022/10/13 09:58:17;;;;;;;35.85;19.65;;;;;;;22.56;51.94;99163.69;5091712;28;20520;-45
2022/10/13 10:00:44;;;;;;;40.20;20.30;;;;;;;22.77;51.78;99165.31;5093487;28;20047;-45
2022/10/13 10:03:31;;;;;;;38.97;13.65;;;;;;;23.04;51.19;99161.53;5094762;28;20486;-45
2022/10/13 10:06:01;;;;;;;19.10;12.38;;;;;;;23.29;50.99;99166.06;5094646;28;20510;-45
2022/10/13 10:08:45;;;;;;;21.48;11.48;;;;;;;23.85;49.95;99173.91;5093278;28;20028;-44
2022/10/13 10:11:17;;;;;;;21.50;11.80;;;;;;;24.06;48.97;99188.00;5094562;28;20024;-45
2022/10/13 10:13:43;;;;;;;18.38;12.43;;;;;;;23.84;48.94;99184.91;5094837;28;20142;-45
2022/10/13 10:16:12;;;;;;;17.00;11.90;;;;;;;23.37;49.59;99196.84;5094501;28;20016;-44
2022/10/13 10:18:46;;;;;;;19.73;11.00;;;;;;;23.48;49.65;99206.44;5094187;28;20057;-44
2022/10/13 10:21:28;;;;;;;18.50;11.63;;;;;;;23.82;48.67;99211.19;5094494;28;20555;-44
2022/10/13 10:24:24;;;;;;;17.42;11.13;;;;;;;23.79;48.48;99201.81;5094309;28;20054;-44
2022/10/13 10:27:05;;;;;;;18.30;11.50;;;;;;;23.48;49.05;99199.22;5094347;28;20048;-44
2022/10/13 10:29:45;;;;;;;21.45;12.98;;;;;;;23.10;49.94;99205.97;5092890;28;20089;-44
2022/10/13 10:32:26;;;;;;;20.05;14.75;;;;;;;22.63;51.27;99201.69;5092935;28;20032;-44
2022/10/13 10:35:01;;;;;;;24.38;15.07;;;;;;;22.42;52.21;99200.88;5094212;28;20024;-44
2022/10/13 10:37:38;;;;;;;32.00;12.95;;;;;;;22.78;52.15;99191.00;5092814;28;20032;-44
2022/10/13 10:40:45;;;;;;;22.42;12.20;;;;;;;24.42;50.13;99170.88;5094295;28;20044;-45
2022/10/13 10:43:30;;;;;;;55.05;27.27;;;;;;;26.50;45.95;99163.44;5090882;28;20059;-46
2022/10/13 10:45:58;;;;;;;19.17;15.45;;;;;;;27.96;41.82;99161.28;5093930;28;20478;-45
2022/10/13 10:48:35;;;;;;;28.42;12.95;;;;;;;28.81;39.32;99164.13;5093776;28;20024;-45
2022/10/13 10:51:05;;;;;;;16.30;11.68;;;;;;;29.01;38.21;99156.63;5092726;28;20122;-45
2022/10/13 10:54:08;;;;;;;13.43;10.70;;;;;;;28.49;38.95;99154.38;5093915;28;20101;-45
2022/10/13 10:56:39;;;;;;;12.95;10.38;;;;;;;28.31;39.23;99153.47;5093675;28;20020;-45
2022/10/13 10:59:20;;;;;;;18.85;12.48;;;;;;;28.20;39.18;99147.53;5093693;28;20023;-45
2022/10/13 11:01:58;;;;;;;23.73;12.48;;;;;;;27.92;39.45;99141.41;5093656;28;20028;-45
2022/10/13 11:04:31;;;;;;;27.40;11.70;;;;;;;27.78;39.52;99149.50;5092299;28;20111;-45
2022/10/13 11:06:56;;;;;;;20.45;10.75;;;;;;;27.57;40.30;99149.16;5093530;28;20039;-45
2022/10/13 11:09:40;;;;;;;45.42;16.10;;;;;;;27.18;40.76;99155.03;5092662;28;20016;-45
2022/10/13 11:12:23;;;;;;;23.70;11.77;;;;;;;27.00;41.39;99141.31;5093454;28;20028;-45
2022/10/13 11:14:54;;;;;;;17.77;11.52;;;;;;;26.90;41.03;99136.13;5093424;28;20049;-45
2022/10/13 11:17:32;;;;;;;16.02;10.23;;;;;;;26.42;41.92;99129.13;5093104;28;20034;-46
2022/10/13 11:19:59;;;;;;;18.48;10.88;;;;;;;26.42;42.07;99126.44;5093333;28;20032;-45
2022/10/13 11:22:29;;;;;;;18.40;10.82;;;;;;;26.70;42.05;99107.66;5093147;28;20035;-45
2022/10/13 11:25:22;;;;;;;16.70;10.55;;;;;;;26.89;40.93;99108.41;5091868;28;20588;-45
2022/10/13 11:27:48;;;;;;;13.65;8.70;;;;;;;26.77;41.04;99108.09;5093091;28;20551;-45
2022/10/13 11:30:46;;;;;;;17.48;9.77;;;;;;;26.85;41.15;99110.09;5092974;28;20012;-45
2022/10/13 11:33:39;;;;;;;14.70;9.23;;;;;;;26.63;40.72;99099.19;5066706;28;20124;-45